sensor_id;sensor_type;location;lat;lon;timestamp;temperature;humidity
40323;DHT22;26030;51.164;17.100;2022-08-05T00:01:21;27.20;57.00
40323;DHT22;26030;51.164;17.100;2022-08-05T00:06:35;27.20;57.00
40323;DHT22;26030;51.164;17.100;2022-08-05T00:11:37;27.20;57.00
40323;DHT22;26030;51.164;17.100;2022-08-05T00:16:57;27.20;57.40
40323;DHT22;26030;51.164;17.100;2022-08-05T00:22:07;27.20;57.00
40323;DHT22;26030;51.164;17.100;2022-08-05T00:27:12;27.20;57.00
40323;DHT22;26030;51.164;17.100;2022-08-05T00:32:18;27.20;57.00
40323;DHT22;26030;51.164;17.100;2022-08-05T00:37:20;27.20;57.10
40323;DHT22;26030;51.164;17.100;2022-08-05T00:42:32;27.20;57.10
40323;DHT22;26030;51.164;17.100;2022-08-05T00:47:38;27.20;57.00
40323;DHT22;26030;51.164;17.100;2022-08-05T00:53:01;27.20;57.00
40323;DHT22;26030;51.164;17.100;2022-08-05T00:58:03;27.20;57.00
40323;DHT22;26030;51.164;17.100;2022-08-05T01:03:05;27.20;57.40
40323;DHT22;26030;51.164;17.100;2022-08-05T01:08:09;27.20;56.70
40323;DHT22;26030;51.164;17.100;2022-08-05T01:19:10;27.10;57.00
40323;DHT22;26030;51.164;17.100;2022-08-05T01:29:49;27.10;57.00
40323;DHT22;26030;51.164;17.100;2022-08-05T01:34:56;27.10;57.10
40323;DHT22;26030;51.164;17.100;2022-08-05T01:40:12;27.10;57.50
40323;DHT22;26030;51.164;17.100;2022-08-05T01:45:19;27.10;57.20
40323;DHT22;26030;51.164;17.100;2022-08-05T01:55:41;27.00;57.30
40323;DHT22;26030;51.164;17.100;2022-08-05T02:00:47;27.00;57.00
40323;DHT22;26030;51.164;17.100;2022-08-05T02:05:52;27.00;57.00
40323;DHT22;26030;51.164;17.100;2022-08-05T02:11:02;27.00;57.00
40323;DHT22;26030;51.164;17.100;2022-08-05T02:21:58;27.00;57.20
40323;DHT22;26030;51.164;17.100;2022-08-05T02:27:04;27.00;57.10
40323;DHT22;26030;51.164;17.100;2022-08-05T02:32:11;26.90;57.10
40323;DHT22;26030;51.164;17.100;2022-08-05T02:37:25;27.00;57.20
40323;DHT22;26030;51.164;17.100;2022-08-05T02:42:33;26.90;57.40
40323;DHT22;26030;51.164;17.100;2022-08-05T02:47:37;26.90;57.10
40323;DHT22;26030;51.164;17.100;2022-08-05T02:53:03;26.90;57.20
40323;DHT22;26030;51.164;17.100;2022-08-05T02:58:13;26.90;57.10
40323;DHT22;26030;51.164;17.100;2022-08-05T03:03:18;26.90;57.10
40323;DHT22;26030;51.164;17.100;2022-08-05T03:08:24;26.90;57.10
40323;DHT22;26030;51.164;17.100;2022-08-05T03:13:30;26.90;57.40
40323;DHT22;26030;51.164;17.100;2022-08-05T03:18:52;26.90;57.80
40323;DHT22;26030;51.164;17.100;2022-08-05T03:23:55;26.90;57.20
40323;DHT22;26030;51.164;17.100;2022-08-05T03:28:59;26.90;57.50
40323;DHT22;26030;51.164;17.100;2022-08-05T03:34:02;26.90;57.30
40323;DHT22;26030;51.164;17.100;2022-08-05T03:39:05;26.90;57.10
40323;DHT22;26030;51.164;17.100;2022-08-05T03:44:14;26.90;57.20
40323;DHT22;26030;51.164;17.100;2022-08-05T03:49:21;26.80;57.20
40323;DHT22;26030;51.164;17.100;2022-08-05T03:54:34;26.80;57.10
40323;DHT22;26030;51.164;17.100;2022-08-05T04:00:04;26.90;57.10
40323;DHT22;26030;51.164;17.100;2022-08-05T04:05:15;26.80;57.20
40323;DHT22;26030;51.164;17.100;2022-08-05T04:10:19;26.80;57.20
40323;DHT22;26030;51.164;17.100;2022-08-05T04:15:21;26.80;57.20
40323;DHT22;26030;51.164;17.100;2022-08-05T04:20:25;26.80;57.10
40323;DHT22;26030;51.164;17.100;2022-08-05T04:25:28;26.80;57.10
40323;DHT22;26030;51.164;17.100;2022-08-05T04:30:50;26.80;57.10
40323;DHT22;26030;51.164;17.100;2022-08-05T04:35:53;26.80;57.80
40323;DHT22;26030;51.164;17.100;2022-08-05T04:41:15;26.80;57.10
40323;DHT22;26030;51.164;17.100;2022-08-05T04:46:18;26.80;57.10
40323;DHT22;26030;51.164;17.100;2022-08-05T04:51:29;26.80;57.40
40323;DHT22;26030;51.164;17.100;2022-08-05T04:56:33;26.80;57.40
40323;DHT22;26030;51.164;17.100;2022-08-05T05:01:38;26.80;57.10
40323;DHT22;26030;51.164;17.100;2022-08-05T05:07:00;26.80;57.20
40323;DHT22;26030;51.164;17.100;2022-08-05T05:12:03;26.80;57.10
40323;DHT22;26030;51.164;17.100;2022-08-05T05:17:07;26.80;57.40
40323;DHT22;26030;51.164;17.100;2022-08-05T05:22:11;26.80;57.10
40323;DHT22;26030;51.164;17.100;2022-08-05T05:27:28;26.80;57.30
40323;DHT22;26030;51.164;17.100;2022-08-05T05:32:47;26.80;57.10
40323;DHT22;26030;51.164;17.100;2022-08-05T05:37:52;26.80;57.70
40323;DHT22;26030;51.164;17.100;2022-08-05T05:43:03;26.80;57.00
40323;DHT22;26030;51.164;17.100;2022-08-05T05:48:10;26.90;57.00
40323;DHT22;26030;51.164;17.100;2022-08-05T05:53:17;26.90;57.00
40323;DHT22;26030;51.164;17.100;2022-08-05T05:58:23;26.90;57.10
40323;DHT22;26030;51.164;17.100;2022-08-05T06:03:33;26.90;57.00
40323;DHT22;26030;51.164;17.100;2022-08-05T06:08:57;26.90;57.40
40323;DHT22;26030;51.164;17.100;2022-08-05T06:14:26;26.90;57.00
40323;DHT22;26030;51.164;17.100;2022-08-05T06:19:30;26.90;57.30
40323;DHT22;26030;51.164;17.100;2022-08-05T06:24:40;26.90;56.90
40323;DHT22;26030;51.164;17.100;2022-08-05T06:29:49;26.90;56.90
40323;DHT22;26030;51.164;17.100;2022-08-05T06:35:12;26.90;57.20
40323;DHT22;26030;51.164;17.100;2022-08-05T06:40:23;26.90;56.80
40323;DHT22;26030;51.164;17.100;2022-08-05T06:45:33;27.00;56.90
40323;DHT22;26030;51.164;17.100;2022-08-05T06:50:56;27.00;57.30
40323;DHT22;26030;51.164;17.100;2022-08-05T06:55:58;27.00;56.90
40323;DHT22;26030;51.164;17.100;2022-08-05T07:01:02;27.00;56.90
40323;DHT22;26030;51.164;17.100;2022-08-05T07:06:13;27.00;56.90
40323;DHT22;26030;51.164;17.100;2022-08-05T07:11:24;27.00;57.20
40323;DHT22;26030;51.164;17.100;2022-08-05T07:16:27;27.00;56.80
40323;DHT22;26030;51.164;17.100;2022-08-05T07:22:09;27.00;56.80
40323;DHT22;26030;51.164;17.100;2022-08-05T07:27:17;27.00;56.90
40323;DHT22;26030;51.164;17.100;2022-08-05T07:32:25;27.10;56.90
40323;DHT22;26030;51.164;17.100;2022-08-05T07:37:28;27.10;56.90
40323;DHT22;26030;51.164;17.100;2022-08-05T07:42:40;27.10;57.20
40323;DHT22;26030;51.164;17.100;2022-08-05T07:47:45;27.10;56.50
40323;DHT22;26030;51.164;17.100;2022-08-05T07:52:48;27.10;56.90
40323;DHT22;26030;51.164;17.100;2022-08-05T07:57:51;27.10;57.20
40323;DHT22;26030;51.164;17.100;2022-08-05T08:03:13;27.10;57.00
40323;DHT22;26030;51.164;17.100;2022-08-05T08:08:17;27.20;56.90
40323;DHT22;26030;51.164;17.100;2022-08-05T08:13:21;27.20;56.90
40323;DHT22;26030;51.164;17.100;2022-08-05T08:18:34;27.20;56.80
40323;DHT22;26030;51.164;17.100;2022-08-05T08:23:38;27.30;57.10
40323;DHT22;26030;51.164;17.100;2022-08-05T08:34:39;27.40;57.90
40323;DHT22;26030;51.164;17.100;2022-08-05T08:39:43;27.40;57.50
40323;DHT22;26030;51.164;17.100;2022-08-05T08:44:52;27.40;57.50
40323;DHT22;26030;51.164;17.100;2022-08-05T08:50:27;27.40;57.50
40323;DHT22;26030;51.164;17.100;2022-08-05T08:55:51;27.40;57.50
40323;DHT22;26030;51.164;17.100;2022-08-05T09:01:07;27.40;57.50
40323;DHT22;26030;51.164;17.100;2022-08-05T09:06:17;27.40;57.50
40323;DHT22;26030;51.164;17.100;2022-08-05T09:11:34;27.50;57.50
40323;DHT22;26030;51.164;17.100;2022-08-05T09:16:53;27.50;58.00
40323;DHT22;26030;51.164;17.100;2022-08-05T09:21:55;27.50;57.80
40323;DHT22;26030;51.164;17.100;2022-08-05T09:27:25;27.50;57.50
40323;DHT22;26030;51.164;17.100;2022-08-05T09:32:53;27.50;57.50
40323;DHT22;26030;51.164;17.100;2022-08-05T09:38:05;27.50;57.60
40323;DHT22;26030;51.164;17.100;2022-08-05T09:43:33;27.60;57.90
40323;DHT22;26030;51.164;17.100;2022-08-05T09:48:43;27.60;57.10
40323;DHT22;26030;51.164;17.100;2022-08-05T09:54:08;27.70;57.00
40323;DHT22;26030;51.164;17.100;2022-08-05T09:59:11;27.70;57.10
40323;DHT22;26030;51.164;17.100;2022-08-05T10:04:30;27.60;57.30
40323;DHT22;26030;51.164;17.100;2022-08-05T10:09:52;27.70;57.40
40323;DHT22;26030;51.164;17.100;2022-08-05T10:15:18;27.70;57.40
40323;DHT22;26030;51.164;17.100;2022-08-05T10:20:27;27.70;57.50
40323;DHT22;26030;51.164;17.100;2022-08-05T10:25:31;27.70;57.50
40323;DHT22;26030;51.164;17.100;2022-08-05T10:30:34;27.80;57.40
40323;DHT22;26030;51.164;17.100;2022-08-05T10:36:00;27.80;57.80
40323;DHT22;26030;51.164;17.100;2022-08-05T10:41:10;27.80;57.60
40323;DHT22;26030;51.164;17.100;2022-08-05T10:46:50;27.90;57.80
40323;DHT22;26030;51.164;17.100;2022-08-05T10:51:56;27.90;57.60
40323;DHT22;26030;51.164;17.100;2022-08-05T10:57:02;27.90;57.80
40323;DHT22;26030;51.164;17.100;2022-08-05T11:02:06;27.90;57.50
40323;DHT22;26030;51.164;17.100;2022-08-05T11:07:56;27.90;56.70
40323;DHT22;26030;51.164;17.100;2022-08-05T11:13:23;27.00;55.30
40323;DHT22;26030;51.164;17.100;2022-08-05T11:25:25;26.60;52.30
40323;DHT22;26030;51.164;17.100;2022-08-05T11:36:03;26.70;52.00
40323;DHT22;26030;51.164;17.100;2022-08-05T11:41:14;26.80;55.20
40323;DHT22;26030;51.164;17.100;2022-08-05T11:46:50;26.60;51.00
40323;DHT22;26030;51.164;17.100;2022-08-05T11:52:13;26.70;55.20
40323;DHT22;26030;51.164;17.100;2022-08-05T11:57:28;26.70;55.30
40323;DHT22;26030;51.164;17.100;2022-08-05T12:02:54;26.60;55.80
40323;DHT22;26030;51.164;17.100;2022-08-05T12:07:58;26.70;56.60
40323;DHT22;26030;51.164;17.100;2022-08-05T12:13:13;26.60;55.00
40323;DHT22;26030;51.164;17.100;2022-08-05T12:18:39;26.60;54.10
40323;DHT22;26030;51.164;17.100;2022-08-05T12:29:15;26.70;57.30
40323;DHT22;26030;51.164;17.100;2022-08-05T12:34:29;26.60;58.10
40323;DHT22;26030;51.164;17.100;2022-08-05T12:39:33;26.60;57.20
40323;DHT22;26030;51.164;17.100;2022-08-05T12:44:40;26.60;56.90
40323;DHT22;26030;51.164;17.100;2022-08-05T12:49:45;26.50;56.80
40323;DHT22;26030;51.164;17.100;2022-08-05T12:55:21;26.50;55.80
40323;DHT22;26030;51.164;17.100;2022-08-05T13:00:27;26.60;56.60
40323;DHT22;26030;51.164;17.100;2022-08-05T13:05:54;26.60;58.60
40323;DHT22;26030;51.164;17.100;2022-08-05T13:11:00;26.60;58.80
40323;DHT22;26030;51.164;17.100;2022-08-05T13:16:10;26.60;58.90
40323;DHT22;26030;51.164;17.100;2022-08-05T13:21:18;26.50;59.00
40323;DHT22;26030;51.164;17.100;2022-08-05T13:26:21;26.40;58.50
40323;DHT22;26030;51.164;17.100;2022-08-05T13:31:31;26.40;56.40
40323;DHT22;26030;51.164;17.100;2022-08-05T13:36:53;26.50;57.10
40323;DHT22;26030;51.164;17.100;2022-08-05T13:41:56;26.50;57.60
40323;DHT22;26030;51.164;17.100;2022-08-05T13:47:01;26.50;59.10
40323;DHT22;26030;51.164;17.100;2022-08-05T13:57:30;26.40;60.00
40323;DHT22;26030;51.164;17.100;2022-08-05T14:02:52;26.40;59.20
40323;DHT22;26030;51.164;17.100;2022-08-05T14:07:55;26.40;57.70
40323;DHT22;26030;51.164;17.100;2022-08-05T14:13:09;26.50;58.50
40323;DHT22;26030;51.164;17.100;2022-08-05T14:18:16;27.00;54.80
40323;DHT22;26030;51.164;17.100;2022-08-05T14:23:25;27.20;54.90
40323;DHT22;26030;51.164;17.100;2022-08-05T14:28:34;27.30;55.50
40323;DHT22;26030;51.164;17.100;2022-08-05T14:33:57;27.40;55.90
40323;DHT22;26030;51.164;17.100;2022-08-05T14:39:02;27.50;55.80
40323;DHT22;26030;51.164;17.100;2022-08-05T14:44:12;27.50;55.90
40323;DHT22;26030;51.164;17.100;2022-08-05T14:49:23;27.60;56.00
40323;DHT22;26030;51.164;17.100;2022-08-05T14:54:45;27.60;56.30
40323;DHT22;26030;51.164;17.100;2022-08-05T14:59:56;27.60;56.10
40323;DHT22;26030;51.164;17.100;2022-08-05T15:04:59;27.60;56.20
40323;DHT22;26030;51.164;17.100;2022-08-05T15:10:09;27.60;56.70
40323;DHT22;26030;51.164;17.100;2022-08-05T15:15:12;27.70;56.50
40323;DHT22;26030;51.164;17.100;2022-08-05T15:20:16;27.70;56.60
40323;DHT22;26030;51.164;17.100;2022-08-05T15:25:21;27.70;56.60
40323;DHT22;26030;51.164;17.100;2022-08-05T15:30:44;27.70;57.20
40323;DHT22;26030;51.164;17.100;2022-08-05T15:35:47;27.80;56.50
40323;DHT22;26030;51.164;17.100;2022-08-05T15:40:51;27.80;56.60
40323;DHT22;26030;51.164;17.100;2022-08-05T15:46:13;27.80;56.50
40323;DHT22;26030;51.164;17.100;2022-08-05T15:51:18;27.90;56.90
40323;DHT22;26030;51.164;17.100;2022-08-05T15:56:43;27.90;56.50
40323;DHT22;26030;51.164;17.100;2022-08-05T16:01:45;27.90;56.30
40323;DHT22;26030;51.164;17.100;2022-08-05T16:06:54;27.90;56.30
40323;DHT22;26030;51.164;17.100;2022-08-05T16:11:57;27.90;56.50
40323;DHT22;26030;51.164;17.100;2022-08-05T16:17:00;27.90;56.40
40323;DHT22;26030;51.164;17.100;2022-08-05T16:22:03;27.90;56.70
40323;DHT22;26030;51.164;17.100;2022-08-05T16:27:13;27.90;56.00
40323;DHT22;26030;51.164;17.100;2022-08-05T16:32:17;28.00;56.50
40323;DHT22;26030;51.164;17.100;2022-08-05T16:37:31;28.00;56.70
40323;DHT22;26030;51.164;17.100;2022-08-05T16:42:55;28.00;56.50
40323;DHT22;26030;51.164;17.100;2022-08-05T16:47:58;28.00;56.80
40323;DHT22;26030;51.164;17.100;2022-08-05T16:53:05;28.00;56.50
40323;DHT22;26030;51.164;17.100;2022-08-05T16:58:24;28.00;56.10
40323;DHT22;26030;51.164;17.100;2022-08-05T17:03:31;28.00;56.50
40323;DHT22;26030;51.164;17.100;2022-08-05T17:08:35;28.10;56.90
40323;DHT22;26030;51.164;17.100;2022-08-05T17:13:55;28.10;56.50
40323;DHT22;26030;51.164;17.100;2022-08-05T17:19:07;28.10;56.60
40323;DHT22;26030;51.164;17.100;2022-08-05T17:24:12;28.10;56.60
40323;DHT22;26030;51.164;17.100;2022-08-05T17:29:32;28.10;56.60
40323;DHT22;26030;51.164;17.100;2022-08-05T17:34:45;28.10;56.60
40323;DHT22;26030;51.164;17.100;2022-08-05T17:39:50;28.10;56.60
40323;DHT22;26030;51.164;17.100;2022-08-05T17:44:57;28.10;56.60
40323;DHT22;26030;51.164;17.100;2022-08-05T17:50:01;28.10;56.70
40323;DHT22;26030;51.164;17.100;2022-08-05T17:55:12;28.10;56.80
40323;DHT22;26030;51.164;17.100;2022-08-05T18:00:16;28.10;56.80
40323;DHT22;26030;51.164;17.100;2022-08-05T18:05:19;28.10;56.80
40323;DHT22;26030;51.164;17.100;2022-08-05T18:10:22;28.10;56.90
40323;DHT22;26030;51.164;17.100;2022-08-05T18:15:25;28.10;56.70
40323;DHT22;26030;51.164;17.100;2022-08-05T18:20:28;28.10;57.00
40323;DHT22;26030;51.164;17.100;2022-08-05T18:25:33;28.10;56.80
40323;DHT22;26030;51.164;17.100;2022-08-05T18:30:37;28.10;56.80
40323;DHT22;26030;51.164;17.100;2022-08-05T18:35:41;28.10;56.90
40323;DHT22;26030;51.164;17.100;2022-08-05T18:41:04;28.10;56.70
40323;DHT22;26030;51.164;17.100;2022-08-05T18:46:28;28.10;56.60
40323;DHT22;26030;51.164;17.100;2022-08-05T18:51:30;28.10;56.90
40323;DHT22;26030;51.164;17.100;2022-08-05T18:57:09;28.10;56.90
40323;DHT22;26030;51.164;17.100;2022-08-05T19:02:17;28.10;56.50
40323;DHT22;26030;51.164;17.100;2022-08-05T19:07:29;28.10;56.50
40323;DHT22;26030;51.164;17.100;2022-08-05T19:12:48;28.10;56.10
40323;DHT22;26030;51.164;17.100;2022-08-05T19:17:50;28.10;56.10
40323;DHT22;26030;51.164;17.100;2022-08-05T19:23:13;28.10;56.00
40323;DHT22;26030;51.164;17.100;2022-08-05T19:28:36;28.10;56.00
40323;DHT22;26030;51.164;17.100;2022-08-05T19:33:44;28.10;56.00
40323;DHT22;26030;51.164;17.100;2022-08-05T19:38:58;28.00;56.00
40323;DHT22;26030;51.164;17.100;2022-08-05T19:44:03;28.10;56.10
40323;DHT22;26030;51.164;17.100;2022-08-05T19:49:21;28.10;56.20
40323;DHT22;26030;51.164;17.100;2022-08-05T19:54:27;28.00;56.00
40323;DHT22;26030;51.164;17.100;2022-08-05T19:59:38;28.00;56.30
40323;DHT22;26030;51.164;17.100;2022-08-05T20:05:32;28.00;55.80
40323;DHT22;26030;51.164;17.100;2022-08-05T20:10:52;28.00;56.60
40323;DHT22;26030;51.164;17.100;2022-08-05T20:15:57;28.00;56.30
40323;DHT22;26030;51.164;17.100;2022-08-05T20:21:01;28.00;55.80
40323;DHT22;26030;51.164;17.100;2022-08-05T20:26:06;28.00;56.20
40323;DHT22;26030;51.164;17.100;2022-08-05T20:31:19;28.00;56.20
40323;DHT22;26030;51.164;17.100;2022-08-05T20:36:53;28.00;56.10
40323;DHT22;26030;51.164;17.100;2022-08-05T20:42:44;28.00;56.00
40323;DHT22;26030;51.164;17.100;2022-08-05T20:48:01;28.00;56.00
40323;DHT22;26030;51.164;17.100;2022-08-05T20:53:10;28.00;56.00
40323;DHT22;26030;51.164;17.100;2022-08-05T20:58:39;28.00;55.90
40323;DHT22;26030;51.164;17.100;2022-08-05T21:03:45;28.00;55.80
40323;DHT22;26030;51.164;17.100;2022-08-05T21:08:56;28.00;55.90
40323;DHT22;26030;51.164;17.100;2022-08-05T21:14:20;28.00;55.90
40323;DHT22;26030;51.164;17.100;2022-08-05T21:19:48;28.00;56.00
40323;DHT22;26030;51.164;17.100;2022-08-05T21:25:09;28.00;56.20
40323;DHT22;26030;51.164;17.100;2022-08-05T21:30:45;28.00;55.80
40323;DHT22;26030;51.164;17.100;2022-08-05T21:35:55;28.00;55.90
40323;DHT22;26030;51.164;17.100;2022-08-05T21:41:02;28.00;55.90
40323;DHT22;26030;51.164;17.100;2022-08-05T21:46:12;28.00;56.20
40323;DHT22;26030;51.164;17.100;2022-08-05T21:51:16;28.00;56.00
40323;DHT22;26030;51.164;17.100;2022-08-05T21:56:38;28.00;56.10
40323;DHT22;26030;51.164;17.100;2022-08-05T22:01:45;27.90;56.10
40323;DHT22;26030;51.164;17.100;2022-08-05T22:06:48;27.90;56.30
40323;DHT22;26030;51.164;17.100;2022-08-05T22:11:51;27.90;56.10
40323;DHT22;26030;51.164;17.100;2022-08-05T22:16:55;27.90;56.10
40323;DHT22;26030;51.164;17.100;2022-08-05T22:22:05;27.90;56.50
40323;DHT22;26030;51.164;17.100;2022-08-05T22:27:07;27.90;56.40
40323;DHT22;26030;51.164;17.100;2022-08-05T22:32:51;27.90;56.30
40323;DHT22;26030;51.164;17.100;2022-08-05T22:37:59;27.90;56.70
40323;DHT22;26030;51.164;17.100;2022-08-05T22:43:01;27.90;56.40
40323;DHT22;26030;51.164;17.100;2022-08-05T22:48:10;27.90;56.70
40323;DHT22;26030;51.164;17.100;2022-08-05T22:53:12;27.90;56.80
40323;DHT22;26030;51.164;17.100;2022-08-05T22:58:21;27.90;57.10
40323;DHT22;26030;51.164;17.100;2022-08-05T23:03:29;27.90;57.30
40323;DHT22;26030;51.164;17.100;2022-08-05T23:09:00;27.90;57.10
40323;DHT22;26030;51.164;17.100;2022-08-05T23:14:23;27.90;57.20
40323;DHT22;26030;51.164;17.100;2022-08-05T23:19:33;27.90;57.20
40323;DHT22;26030;51.164;17.100;2022-08-05T23:24:48;27.90;57.60
40323;DHT22;26030;51.164;17.100;2022-08-05T23:29:52;27.90;57.40
40323;DHT22;26030;51.164;17.100;2022-08-05T23:34:56;27.90;57.70
40323;DHT22;26030;51.164;17.100;2022-08-05T23:39:59;27.90;57.40
40323;DHT22;26030;51.164;17.100;2022-08-05T23:45:09;27.90;57.50
40323;DHT22;26030;51.164;17.100;2022-08-05T23:50:16;27.80;57.40
40323;DHT22;26030;51.164;17.100;2022-08-05T23:55:21;27.90;57.50
